Time;durP1;ratioP1;P1;durP2;ratioP2;P2;SDS_P1;SDS_P2;PMS_P1;PMS_P2;Temp;Humidity;BMP_temperature;BMP_pressure;BME280_temperature;BME280_humidity;BME280_pressure;Samples;Min_cycle;Max_cycle;Signal;HPM_P1;HPM_P2
2022/10/03 00:00:10;;;;;;;13.73;3.00;;;11.50;99.90;;;;;;5094811;28;20790;-69
2022/10/03 00:03:19;;;;;;;9.07;2.43;;;11.40;99.90;;;;;;5094993;28;20441;-70
2022/10/03 00:05:58;;;;;;;16.83;3.47;;;11.50;99.90;;;;;;5094721;28;20453;-70
2022/10/03 00:08:38;;;;;;;12.50;2.60;;;11.50;99.90;;;;;;5095220;28;20785;-70
2022/10/03 00:11:16;;;;;;;10.50;2.90;;;11.50;99.90;;;;;;5094668;28;20469;-70
2022/10/03 00:13:57;;;;;;;11.90;2.53;;;11.50;99.90;;;;;;5094799;28;20437;-70
2022/10/03 00:16:35;;;;;;;12.77;3.27;;;11.60;99.90;;;;;;5094637;28;20441;-70
2022/10/03 00:19:09;;;;;;;13.30;2.80;;;11.60;99.90;;;;;;5094725;28;20466;-70
2022/10/03 00:21:48;;;;;;;16.47;2.97;;;11.60;99.90;;;;;;5094444;28;20441;-70
2022/10/03 00:24:26;;;;;;;18.03;3.10;;;11.60;99.90;;;;;;5094721;28;20491;-70
2022/10/03 00:27:01;;;;;;;12.87;3.10;;;11.60;99.90;;;;;;5094453;28;20441;-71
2022/10/03 00:29:45;;;;;;;17.07;3.40;;;11.60;99.90;;;;;;5093980;28;20437;-71
2022/10/03 00:32:25;;;;;;;46.73;21.27;;;11.60;99.90;;;;;;5094432;28;20461;-70
2022/10/03 00:35:05;;;;;;;14.70;2.77;;;11.60;99.90;;;;;;5094919;28;20536;-69
2022/10/03 00:37:36;;;;;;;11.33;2.47;;;11.70;99.90;;;;;;5096086;28;20452;-69
2022/10/03 00:40:45;;;;;;;15.07;3.47;;;11.70;99.90;;;;;;5095635;28;20433;-69
2022/10/03 00:43:44;;;;;;;19.27;3.70;;;11.70;99.90;;;;;;5081392;28;20463;-67
2022/10/03 00:46:39;;;;;;;14.70;3.67;;;11.70;99.90;;;;;;5095616;28;20452;-69
2022/10/03 00:49:37;;;;;;;12.93;2.80;;;11.60;99.90;;;;;;5074995;28;20551;-68
2022/10/03 00:52:22;;;;;;;14.33;2.30;;;11.60;99.90;;;;;;5098445;28;20552;-67
2022/10/03 00:55:04;;;;;;;11.13;3.47;;;11.60;99.90;;;;;;5099190;28;21013;-69
2022/10/03 00:57:49;;;;;;;13.30;4.07;;;11.60;99.90;;;;;;5097945;28;20907;-68
2022/10/03 01:00:20;;;;;;;12.60;2.60;;;11.60;99.90;;;;;;5096243;28;20444;-68
2022/10/03 01:02:58;;;;;;;13.77;3.27;;;11.60;99.90;;;;;;5095660;28;20552;-69
2022/10/03 01:05:36;;;;;;;17.37;3.80;;;11.60;99.90;;;;;;5095914;28;20441;-68
2022/10/03 01:08:39;;;;;;;12.63;2.90;;;11.60;99.90;;;;;;5095842;28;20451;-69
2022/10/03 01:11:18;;;;;;;11.77;4.70;;;11.50;99.90;;;;;;5095555;28;20480;-68
2022/10/03 01:14:02;;;;;;;13.07;3.00;;;11.50;99.90;;;;;;5095399;28;20457;-68
2022/10/03 01:16:40;;;;;;;12.23;2.80;;;11.50;99.90;;;;;;5094843;28;20452;-69
2022/10/03 01:19:33;;;;;;;10.43;3.10;;;11.50;99.90;;;;;;5095281;28;20445;-68
2022/10/03 01:22:15;;;;;;;12.67;3.33;;;11.50;99.90;;;;;;5094916;28;20444;-68
2022/10/03 01:24:53;;;;;;;16.57;3.57;;;11.50;99.90;;;;;;5094849;28;20441;-68
2022/10/03 01:27:30;;;;;;;16.70;4.20;;;11.60;99.90;;;;;;5094723;28;20881;-69
2022/10/03 01:32:52;;;;;;;9.20;2.80;;;11.70;99.90;;;;;;5095391;28;20469;-69
2022/10/03 01:35:27;;;;;;;11.43;4.30;;;11.70;99.90;;;;;;5095045;28;20502;-67
2022/10/03 01:38:05;;;;;;;15.73;3.37;;;11.60;99.90;;;;;;5098991;28;20458;-68
2022/10/03 01:40:36;;;;;;;13.97;3.30;;;11.70;99.90;;;;;;5099483;28;20520;-69
2022/10/03 01:43:14;;;;;;;12.37;3.60;;;11.70;99.90;;;;;;5100223;28;20461;-69
2022/10/03 01:46:01;;;;;;;11.93;2.43;;;11.70;99.90;;;;;;5098543;28;20451;-69
2022/10/03 01:48:35;;;;;;;10.13;2.23;;;11.80;99.90;;;;;;5099667;28;20524;-69
2022/10/03 01:51:10;;;;;;;9.40;2.50;;;11.80;99.90;;;;;;5099515;28;20515;-69
2022/10/03 01:53:48;;;;;;;14.50;2.63;;;11.80;99.90;;;;;;5098608;28;20892;-69
2022/10/03 01:56:24;;;;;;;7.07;2.90;;;11.90;99.90;;;;;;5099202;28;20441;-69
2022/10/03 01:59:00;;;;;;;10.90;2.70;;;11.90;99.90;;;;;;5098352;28;20448;-69
2022/10/03 02:01:36;;;;;;;11.93;2.60;;;11.80;99.90;;;;;;5097947;28;20528;-69
2022/10/03 02:04:12;;;;;;;14.67;2.80;;;11.80;99.90;;;;;;5098309;28;20442;-69
2022/10/03 02:06:48;;;;;;;11.80;2.87;;;11.90;99.90;;;;;;5098204;28;20441;-69
2022/10/03 02:09:26;;;;;;;10.80;3.20;;;11.90;99.90;;;;;;5098436;28;20442;-69
2022/10/03 02:12:04;;;;;;;13.20;2.77;;;11.90;99.90;;;;;;5098642;28;20570;-69
2022/10/03 02:14:40;;;;;;;4.17;2.03;;;11.90;99.90;;;;;;5098629;28;20441;-69
2022/10/03 02:17:15;;;;;;;9.30;2.60;;;11.90;99.90;;;;;;5098645;28;20902;-69
2022/10/03 02:19:49;;;;;;;7.67;2.00;;;11.90;99.90;;;;;;5098166;28;20498;-68
2022/10/03 02:22:28;;;;;;;9.50;3.30;;;11.90;99.90;;;;;;5099796;28;20827;-68
2022/10/03 02:25:09;;;;;;;12.27;2.80;;;11.90;99.90;;;;;;5100113;28;20446;-69
2022/10/03 02:28:13;;;;;;;9.23;2.63;;;11.90;99.90;;;;;;5100273;28;20452;-68
2022/10/03 02:30:56;;;;;;;13.30;2.73;;;11.90;99.90;;;;;;5099300;28;20456;-69
2022/10/03 02:34:01;;;;;;;11.60;2.80;;;11.90;99.90;;;;;;5099922;28;20465;-69
2022/10/03 02:36:59;;;;;;;9.33;2.97;;;11.90;99.90;;;;;;5099164;28;20611;-69
2022/10/03 02:39:52;;;;;;;12.53;3.40;;;11.90;99.90;;;;;;5099157;28;20441;-69
2022/10/03 02:42:56;;;;;;;11.37;3.90;;;12.00;99.90;;;;;;5098489;28;20908;-69
2022/10/03 02:46:01;;;;;;;9.27;2.20;;;12.00;99.90;;;;;;5097965;28;20471;-69
2022/10/03 02:48:48;;;;;;;7.53;2.50;;;12.00;99.90;;;;;;5098478;28;20441;-69
2022/10/03 02:51:48;;;;;;;6.97;2.63;;;12.00;99.90;;;;;;5097579;28;20495;-68
2022/10/03 02:54:57;;;;;;;9.10;2.53;;;12.00;99.90;;;;;;5097372;28;20453;-68
2022/10/03 02:58:15;;;;;;;19.13;3.00;;;12.10;99.90;;;;;;5099479;28;20449;-68
2022/10/03 03:01:21;;;;;;;8.70;2.67;;;12.00;99.90;;;;;;5098754;28;20445;-68
2022/10/03 03:04:15;;;;;;;11.03;2.70;;;12.00;99.90;;;;;;5082931;28;20453;-68
2022/10/03 03:06:57;;;;;;;8.40;3.47;;;12.10;99.90;;;;;;5095937;28;20450;-68
2022/10/03 03:10:13;;;;;;;11.90;2.67;;;12.00;99.90;;;;;;5097388;28;20448;-69
2022/10/03 03:13:05;;;;;;;6.87;2.17;;;12.00;99.90;;;;;;5056307;28;20501;-67
2022/10/03 03:16:20;;;;;;;10.87;2.30;;;12.10;99.90;;;;;;5095272;28;20457;-67
2022/10/03 03:18:54;;;;;;;5.53;2.57;;;12.10;99.90;;;;;;5098181;28;20440;-69
2022/10/03 03:21:34;;;;;;;10.97;2.70;;;12.10;99.90;;;;;;5098818;28;20433;-69
2022/10/03 03:24:18;;;;;;;10.60;2.90;;;12.10;99.90;;;;;;5098735;28;20453;-69
2022/10/03 03:27:05;;;;;;;8.50;2.50;;;12.10;99.90;;;;;;5099056;28;20443;-69
2022/10/03 03:29:42;;;;;;;11.83;2.40;;;12.10;99.90;;;;;;5097451;28;20447;-69
2022/10/03 03:32:20;;;;;;;8.40;3.10;;;12.10;99.90;;;;;;5099191;28;20532;-69
2022/10/03 03:34:56;;;;;;;10.57;2.90;;;12.00;99.90;;;;;;5099468;28;20452;-69
2022/10/03 03:37:33;;;;;;;19.93;3.50;;;12.00;99.90;;;;;;5097728;28;20433;-69
2022/10/03 03:40:17;;;;;;;8.57;2.70;;;12.10;99.90;;;;;;5098109;28;20772;-68
2022/10/03 03:43:04;;;;;;;10.10;2.70;;;12.10;99.90;;;;;;5097892;28;20528;-69
2022/10/03 03:45:44;;;;;;;8.80;2.80;;;12.10;99.90;;;;;;5099319;28;20521;-69
2022/10/03 03:48:38;;;;;;;15.23;2.73;;;12.10;99.90;;;;;;5098256;28;20441;-68
2022/10/03 03:51:24;;;;;;;9.27;2.30;;;12.10;99.90;;;;;;5098539;28;20473;-69
2022/10/03 03:54:11;;;;;;;6.87;2.43;;;12.20;99.90;;;;;;5099448;28;20426;-69
2022/10/03 03:56:51;;;;;;;7.07;2.73;;;12.20;99.90;;;;;;5097053;28;20969;-69
2022/10/03 03:59:31;;;;;;;14.43;2.20;;;12.20;99.90;;;;;;5096396;28;20463;-68
2022/10/03 04:02:11;;;;;;;16.50;2.87;;;12.10;99.90;;;;;;5096019;28;20455;-69
2022/10/03 04:05:00;;;;;;;9.07;3.23;;;12.10;99.90;;;;;;5096802;28;20437;-69
2022/10/03 04:07:41;;;;;;;15.70;3.17;;;12.00;99.90;;;;;;5097518;28;20441;-69
2022/10/03 04:10:23;;;;;;;12.87;2.77;;;12.00;99.90;;;;;;5097351;28;20893;-68
2022/10/03 04:13:17;;;;;;;12.93;3.63;;;12.00;99.90;;;;;;5097381;28;20838;-69
2022/10/03 04:16:05;;;;;;;14.83;2.50;;;12.00;99.90;;;;;;5097342;28;20462;-69
2022/10/03 04:18:57;;;;;;;11.40;3.20;;;12.00;99.90;;;;;;5097657;28;20452;-68
2022/10/03 04:21:57;;;;;;;8.97;2.80;;;12.00;99.90;;;;;;5096577;28;20515;-69
2022/10/03 04:24:47;;;;;;;13.00;3.07;;;11.90;99.90;;;;;;5097076;28;20793;-69
2022/10/03 04:27:29;;;;;;;13.70;2.93;;;11.90;99.90;;;;;;5092406;28;20548;-69
2022/10/03 04:30:07;;;;;;;6.07;2.47;;;11.90;99.90;;;;;;5096726;28;20447;-68
2022/10/03 04:32:51;;;;;;;10.50;3.07;;;11.90;99.90;;;;;;5096026;28;20476;-69
2022/10/03 04:35:52;;;;;;;9.60;3.00;;;11.90;99.90;;;;;;5096816;28;20441;-69
2022/10/03 04:38:38;;;;;;;9.13;2.80;;;11.90;99.90;;;;;;5097805;28;20436;-69
2022/10/03 04:41:12;;;;;;;11.40;2.90;;;11.90;99.90;;;;;;5096849;28;20543;-69
2022/10/03 04:43:45;;;;;;;9.33;3.03;;;12.00;99.90;;;;;;5097622;28;20446;-69
2022/10/03 04:46:24;;;;;;;11.47;2.50;;;12.00;99.90;;;;;;5097453;28;20532;-69
2022/10/03 04:49:00;;;;;;;6.97;2.30;;;12.00;99.90;;;;;;5097734;28;20442;-69
2022/10/03 04:51:41;;;;;;;8.63;3.07;;;12.00;99.90;;;;;;5097650;28;20487;-69
2022/10/03 04:54:20;;;;;;;9.63;2.40;;;12.10;99.90;;;;;;5098523;28;20425;-69
2022/10/03 04:56:54;;;;;;;11.73;2.50;;;12.10;99.90;;;;;;5097097;28;20429;-69
2022/10/03 04:59:49;;;;;;;9.80;2.63;;;12.10;99.90;;;;;;5097673;28;20460;-69
2022/10/03 05:02:32;;;;;;;8.57;2.90;;;12.10;99.90;;;;;;5092677;28;20464;-69
2022/10/03 05:05:27;;;;;;;14.10;4.33;;;12.10;99.90;;;;;;5097095;28;20814;-69
2022/10/03 05:08:03;;;;;;;8.47;2.17;;;12.10;99.90;;;;;;5097675;28;20433;-69
2022/10/03 05:10:42;;;;;;;8.17;2.30;;;12.10;99.90;;;;;;5096692;28;20468;-69
2022/10/03 05:13:15;;;;;;;7.90;2.63;;;12.10;99.90;;;;;;5099634;28;20475;-69
2022/10/03 05:15:55;;;;;;;11.40;2.57;;;12.10;99.90;;;;;;5100899;28;20441;-69
2022/10/03 05:18:34;;;;;;;15.50;3.43;;;12.10;99.90;;;;;;5100843;28;20437;-69
2022/10/03 05:21:09;;;;;;;9.57;2.17;;;12.10;99.90;;;;;;5101416;28;20450;-69
2022/10/03 05:23:47;;;;;;;12.03;3.00;;;12.10;99.90;;;;;;5101322;28;20433;-69
2022/10/03 05:26:24;;;;;;;13.67;2.53;;;12.10;99.90;;;;;;5100804;28;20437;-69
2022/10/03 05:28:59;;;;;;;10.13;2.90;;;12.00;99.90;;;;;;5100067;28;20441;-69
2022/10/03 05:31:37;;;;;;;11.97;2.60;;;12.00;99.90;;;;;;5100573;28;20468;-69
2022/10/03 05:34:13;;;;;;;13.87;3.03;;;12.10;99.90;;;;;;5100396;28;20491;-69
2022/10/03 05:36:59;;;;;;;11.77;4.00;;;12.00;99.90;;;;;;5101129;28;20934;-69
2022/10/03 05:39:31;;;;;;;11.17;3.30;;;12.00;99.90;;;;;;5101059;28;20438;-68
2022/10/03 05:42:14;;;;;;;13.23;2.77;;;12.10;99.90;;;;;;5100733;28;20503;-69
2022/10/03 05:44:45;;;;;;;11.57;2.20;;;12.00;99.90;;;;;;5099769;28;20608;-69
2022/10/03 05:50:40;;;;;;;11.67;2.90;;;12.10;99.90;;;;;;5101150;28;20563;-70
2022/10/03 05:53:50;;;;;;;13.77;2.73;;;12.10;99.90;;;;;;5090176;28;20473;-69
2022/10/03 05:56:31;;;;;;;10.67;2.67;;;12.10;99.90;;;;;;5088800;28;20869;-69
2022/10/03 05:59:36;;;;;;;9.03;2.47;;;12.10;99.90;;;;;;5100923;28;20434;-69
2022/10/03 06:02:43;;;;;;;8.87;2.60;;;12.10;99.90;;;;;;5097461;28;20482;-69
2022/10/03 06:05:20;;;;;;;18.30;2.70;;;12.10;99.90;;;;;;5100783;28;20448;-69
2022/10/03 06:08:05;;;;;;;7.07;2.43;;;12.10;99.90;;;;;;5099329;28;20524;-69
2022/10/03 06:10:49;;;;;;;11.70;2.37;;;12.00;99.90;;;;;;5098645;28;20444;-69
2022/10/03 06:13:29;;;;;;;8.97;3.23;;;12.00;99.90;;;;;;5098694;28;20792;-68
2022/10/03 06:16:13;;;;;;;10.33;2.70;;;12.00;99.90;;;;;;5099354;28;20545;-69
2022/10/03 06:19:11;;;;;;;16.33;3.43;;;12.00;99.90;;;;;;5098091;28;20455;-69
2022/10/03 06:22:19;;;;;;;16.10;2.83;;;12.00;99.90;;;;;;5098527;28;20794;-69
2022/10/03 06:25:08;;;;;;;10.70;2.70;;;12.10;99.90;;;;;;5099381;28;20513;-69
2022/10/03 06:28:26;;;;;;;6.97;2.60;;;12.10;99.90;;;;;;5092885;28;20468;-69
2022/10/03 06:31:21;;;;;;;11.43;2.20;;;12.20;99.90;;;;;;5098863;28;20499;-69
2022/10/03 06:34:24;;;;;;;10.73;2.50;;;12.20;99.90;;;;;;5098816;28;20995;-69
2022/10/03 06:37:18;;;;;;;10.77;2.87;;;12.30;99.90;;;;;;5099550;28;20448;-69
2022/10/03 06:40:27;;;;;;;7.77;2.03;;;12.30;99.90;;;;;;5098209;28;20889;-69
2022/10/03 06:43:18;;;;;;;9.60;2.70;;;12.30;99.90;;;;;;5078050;28;20453;-69
2022/10/03 06:46:02;;;;;;;8.53;2.87;;;12.40;99.90;;;;;;5096346;28;20566;-69
2022/10/03 06:49:01;;;;;;;10.03;2.20;;;12.50;99.90;;;;;;5098000;28;20841;-69
2022/10/03 06:52:06;;;;;;;13.43;2.70;;;12.50;99.90;;;;;;5098444;28;20543;-69
2022/10/03 06:55:15;;;;;;;11.53;2.53;;;12.50;99.90;;;;;;5098188;28;20480;-68
2022/10/03 06:58:14;;;;;;;5.80;1.90;;;12.60;99.90;;;;;;5098464;28;20444;-69
2022/10/03 07:00:53;;;;;;;14.27;3.87;;;12.50;99.90;;;;;;5096540;28;20522;-69
2022/10/03 07:04:00;;;;;;;9.50;2.20;;;12.50;99.90;;;;;;5097643;28;20430;-69
2022/10/03 07:07:06;;;;;;;9.50;2.67;;;12.50;99.90;;;;;;5086652;28;20483;-69
2022/10/03 07:10:03;;;;;;;17.63;3.23;;;12.50;99.90;;;;;;5100760;28;20532;-69
2022/10/03 07:12:52;;;;;;;14.30;2.50;;;12.60;99.90;;;;;;5098833;28;20899;-69
2022/10/03 07:15:34;;;;;;;13.13;2.07;;;12.60;99.90;;;;;;5097893;28;20900;-69
2022/10/03 07:18:35;;;;;;;12.37;3.07;;;12.70;99.90;;;;;;5098512;28;20842;-69
2022/10/03 07:21:25;;;;;;;9.00;2.30;;;12.80;99.90;;;;;;5094530;28;20465;-68
2022/10/03 07:24:15;;;;;;;12.23;2.70;;;12.90;99.90;;;;;;5096887;28;20434;-68
2022/10/03 07:27:01;;;;;;;7.37;2.07;;;13.00;99.90;;;;;;5090477;28;20548;-68
2022/10/03 07:29:55;;;;;;;17.47;3.10;;;13.00;99.90;;;;;;5097639;28;20446;-69
2022/10/03 07:32:58;;;;;;;9.57;1.93;;;13.00;99.90;;;;;;5098895;28;20438;-69
2022/10/03 07:39:13;;;;;;;11.00;2.50;;;13.10;99.90;;;;;;5098170;28;20503;-69
2022/10/03 07:41:54;;;;;;;9.03;2.37;;;13.10;99.90;;;;;;5078111;28;20455;-70
2022/10/03 07:44:51;;;;;;;10.83;2.80;;;13.20;99.90;;;;;;5099010;28;20448;-70
2022/10/03 07:47:50;;;;;;;13.10;2.53;;;13.30;99.90;;;;;;5081731;28;20463;-69
2022/10/03 07:50:51;;;;;;;10.20;2.63;;;13.30;99.90;;;;;;5095127;28;20520;-70
2022/10/03 07:53:48;;;;;;;12.63;2.53;;;13.30;99.90;;;;;;5097579;28;20470;-69
2022/10/03 07:56:33;;;;;;;11.03;2.13;;;13.30;99.90;;;;;;5058146;28;20463;-70
2022/10/03 07:59:37;;;;;;;8.53;2.07;;;13.30;99.90;;;;;;5097668;28;20765;-70
2022/10/03 08:02:26;;;;;;;14.57;2.43;;;13.20;99.90;;;;;;5097795;28;20532;-69
2022/10/03 08:05:23;;;;;;;12.90;2.17;;;13.20;99.90;;;;;;5096639;28;20429;-69
2022/10/03 08:08:11;;;;;;;8.07;2.50;;;13.30;99.90;;;;;;5096051;28;20453;-68
2022/10/03 08:11:22;;;;;;;18.87;3.07;;;13.30;99.90;;;;;;5096537;28;20605;-70
2022/10/03 08:14:07;;;;;;;9.30;2.70;;;13.40;99.90;;;;;;5097798;28;20492;-70
2022/10/03 08:16:54;;;;;;;7.03;2.20;;;13.40;99.90;;;;;;5096571;28;20441;-69
2022/10/03 08:19:39;;;;;;;15.50;2.43;;;13.50;99.90;;;;;;5096543;28;20438;-69
2022/10/03 08:22:12;;;;;;;13.17;2.80;;;13.60;99.90;;;;;;5096355;28;20441;-70
2022/10/03 08:25:10;;;;;;;10.77;2.53;;;13.70;99.90;;;;;;5096128;28;20828;-70
2022/10/03 08:28:01;;;;;;;8.77;2.53;;;13.70;99.90;;;;;;5096657;28;20468;-70
2022/10/03 08:30:36;;;;;;;7.17;2.40;;;13.80;99.90;;;;;;5097401;28;20820;-70
2022/10/03 08:33:38;;;;;;;11.50;2.53;;;13.80;99.90;;;;;;5097532;28;20584;-70
2022/10/03 08:36:44;;;;;;;7.27;1.90;;;13.80;99.90;;;;;;5086179;28;20479;-70
2022/10/03 08:39:13;;;;;;;12.87;3.20;;;13.80;99.90;;;;;;5096475;28;20442;-68
2022/10/03 08:42:13;;;;;;;7.80;2.13;;;13.80;99.90;;;;;;5096582;28;20453;-70
2022/10/03 08:45:12;;;;;;;9.83;2.50;;;13.90;99.90;;;;;;5096602;28;20765;-70
2022/10/03 08:48:14;;;;;;;8.50;2.33;;;13.90;99.90;;;;;;5094286;28;20453;-70
2022/10/03 08:51:05;;;;;;;10.70;3.13;;;13.90;99.90;;;;;;5085240;28;20537;-70
2022/10/03 08:54:12;;;;;;;4.63;2.03;;;13.90;99.90;;;;;;5096249;28;20514;-70
2022/10/03 08:56:57;;;;;;;8.03;2.27;;;14.00;99.90;;;;;;5096479;28;20925;-70
2022/10/03 08:59:58;;;;;;;9.73;2.30;;;14.00;99.90;;;;;;5096985;28;20531;-70
2022/10/03 09:03:00;;;;;;;9.90;2.17;;;14.10;99.90;;;;;;5089550;28;20532;-70
2022/10/03 09:06:08;;;;;;;12.40;2.33;;;14.10;99.90;;;;;;5096026;28;20912;-70
2022/10/03 09:09:00;;;;;;;12.43;3.30;;;14.20;99.90;;;;;;5095382;28;20871;-71
2022/10/03 09:11:55;;;;;;;7.43;2.80;;;14.30;99.90;;;;;;5096778;28;20447;-70
2022/10/03 09:15:00;;;;;;;12.27;2.50;;;14.30;99.90;;;;;;5096276;28;20801;-71
2022/10/03 09:17:54;;;;;;;12.37;2.30;;;14.30;99.90;;;;;;5096135;28;20492;-70
2022/10/03 09:20:57;;;;;;;9.37;2.50;;;14.40;99.90;;;;;;5090789;28;20499;-69
2022/10/03 09:23:54;;;;;;;8.00;2.30;;;14.30;99.90;;;;;;5093934;28;20516;-70
2022/10/03 09:27:02;;;;;;;10.83;2.43;;;14.40;99.90;;;;;;5095721;28;20490;-70
2022/10/03 09:29:53;;;;;;;15.00;2.30;;;14.60;99.90;;;;;;5095963;28;20513;-70
2022/10/03 09:33:11;;;;;;;13.47;2.40;;;14.70;99.90;;;;;;5095122;28;20433;-70
2022/10/03 09:36:08;;;;;;;8.80;2.70;;;14.80;99.90;;;;;;5095547;28;20433;-69
2022/10/03 09:38:56;;;;;;;11.27;2.50;;;14.90;99.90;;;;;;5096124;28;20835;-69
2022/10/03 09:41:51;;;;;;;10.83;2.27;;;15.00;99.90;;;;;;5095489;28;20442;-69
2022/10/03 09:44:42;;;;;;;12.43;2.70;;;15.10;99.90;;;;;;5096530;28;20447;-69
2022/10/03 09:47:54;;;;;;;11.67;2.53;;;15.20;99.90;;;;;;5095570;28;20512;-69
2022/10/03 09:50:52;;;;;;;6.60;1.90;;;15.20;99.90;;;;;;5095213;28;20944;-69
2022/10/03 09:53:45;;;;;;;9.67;2.63;;;15.20;99.90;;;;;;5095898;28;20896;-69
2022/10/03 09:56:47;;;;;;;9.50;2.20;;;15.20;99.90;;;;;;5094609;28;20477;-69
2022/10/03 09:59:40;;;;;;;10.53;2.53;;;15.30;99.90;;;;;;5065520;28;20733;-70
2022/10/03 10:02:39;;;;;;;6.57;1.53;;;15.40;99.90;;;;;;5098582;28;20448;-69
2022/10/03 10:05:37;;;;;;;7.57;2.27;;;15.40;99.90;;;;;;5081292;28;20492;-68
2022/10/03 10:08:26;;;;;;;8.73;2.20;;;15.30;99.90;;;;;;5099485;28;20757;-69
2022/10/03 10:11:03;;;;;;;9.87;2.23;;;15.20;99.90;;;;;;5099341;28;20909;-70
2022/10/03 10:14:01;;;;;;;9.83;2.40;;;15.10;99.90;;;;;;5099170;28;20559;-69
2022/10/03 10:16:53;;;;;;;8.77;2.10;;;15.10;99.90;;;;;;5099089;28;20441;-69
2022/10/03 10:19:50;;;;;;;8.27;1.97;;;15.10;99.90;;;;;;5098951;28;20438;-69
2022/10/03 10:22:53;;;;;;;8.50;1.80;;;15.20;99.90;;;;;;5098798;28;20494;-69
2022/10/03 10:25:41;;;;;;;7.53;1.93;;;15.40;99.90;;;;;;5099271;28;20449;-70
2022/10/03 10:28:50;;;;;;;6.40;2.07;;;15.60;99.90;;;;;;5097259;28;20454;-69
2022/10/03 10:32:05;;;;;;;9.80;2.33;;;15.70;99.90;;;;;;5098606;28;20777;-69
2022/10/03 10:35:09;;;;;;;6.77;1.60;;;15.80;99.90;;;;;;5099533;28;20465;-69
2022/10/03 10:38:27;;;;;;;7.30;1.80;;;15.80;99.90;;;;;;5098100;28;20911;-69
2022/10/03 10:41:42;;;;;;;5.00;1.93;;;15.90;99.90;;;;;;5057194;28;20481;-69
2022/10/03 10:45:02;;;;;;;9.30;2.10;;;15.80;99.90;;;;;;4996378;28;20854;-69
2022/10/03 10:48:26;;;;;;;7.17;1.87;;;15.80;99.90;;;;;;5097751;28;20513;-69
2022/10/03 10:51:26;;;;;;;5.93;2.00;;;15.90;99.90;;;;;;5056184;28;20517;-69
2022/10/03 10:54:24;;;;;;;6.30;1.50;;;16.00;99.90;;;;;;5098091;28;20520;-69
2022/10/03 10:57:16;;;;;;;8.47;2.33;;;16.10;99.90;;;;;;5098426;28;20779;-69
2022/10/03 11:00:16;;;;;;;3.50;1.50;;;16.20;99.90;;;;;;5099201;28;20438;-69
2022/10/03 11:03:45;;;;;;;8.30;2.60;;;16.30;99.90;;;;;;5098845;28;20449;-68
2022/10/03 11:07:03;;;;;;;10.30;2.17;;;16.20;99.90;;;;;;5098561;28;20508;-69
2022/10/03 11:09:49;;;;;;;11.23;1.80;;;16.20;99.90;;;;;;5099000;28;20517;-69
2022/10/03 11:13:05;;;;;;;7.13;2.40;;;16.20;99.90;;;;;;5100361;28;20437;-69
2022/10/03 11:16:20;;;;;;;4.10;1.60;;;16.30;99.90;;;;;;5099864;28;20465;-69
2022/10/03 11:19:40;;;;;;;7.90;1.67;;;16.50;99.90;;;;;;5080993;28;20480;-70
2022/10/03 11:23:02;;;;;;;8.60;1.70;;;16.70;99.90;;;;;;5098483;28;20437;-67
2022/10/03 11:26:10;;;;;;;6.10;1.57;;;16.70;99.90;;;;;;5096736;28;20440;-68
2022/10/03 11:29:09;;;;;;;6.27;1.87;;;16.70;99.90;;;;;;5096656;28;20516;-68
2022/10/03 11:32:15;;;;;;;7.80;1.30;;;16.60;99.90;;;;;;5096795;28;20886;-70
2022/10/03 11:35:18;;;;;;;7.30;1.80;;;16.50;99.90;;;;;;5097401;28;20564;-67
2022/10/03 11:37:50;;;;;;;8.33;1.63;;;16.50;99.90;;;;;;5093369;28;20542;-67
2022/10/03 11:40:31;;;;;;;5.00;2.20;;;16.40;99.90;;;;;;5101599;28;20727;-69
2022/10/03 11:43:14;;;;;;;11.10;1.57;;;16.20;99.90;;;;;;5106278;28;20437;-70
2022/10/03 11:45:47;;;;;;;8.50;2.03;;;16.10;99.90;;;;;;5100370;28;20810;-69
2022/10/03 11:48:31;;;;;;;3.10;1.50;;;16.10;99.90;;;;;;5099571;28;20524;-70
2022/10/03 11:51:02;;;;;;;10.00;1.67;;;16.10;99.90;;;;;;5096690;28;20496;-66
2022/10/03 11:53:45;;;;;;;6.67;1.70;;;15.90;99.90;;;;;;5096240;28;20442;-66
2022/10/03 11:56:34;;;;;;;9.10;1.80;;;15.80;99.90;;;;;;5095679;28;20429;-68
2022/10/03 11:59:30;;;;;;;5.03;1.60;;;15.70;99.90;;;;;;5095784;28;20440;-67
2022/10/03 12:02:19;;;;;;;5.30;1.77;;;15.90;99.90;;;;;;5095494;28;20430;-68
2022/10/03 12:04:54;;;;;;;7.20;1.63;;;16.10;99.90;;;;;;5095429;28;20434;-68
2022/10/03 12:10:41;;;;;;;5.37;1.97;;;16.30;99.90;;;;;;5095754;28;20425;-67
2022/10/03 12:13:12;;;;;;;8.00;1.60;;;16.30;99.90;;;;;;5095404;28;20437;-68
2022/10/03 12:15:42;;;;;;;11.33;1.70;;;16.30;99.90;;;;;;5095037;28;20477;-68
2022/10/03 12:18:15;;;;;;;5.93;1.73;;;16.60;99.90;;;;;;5095261;28;20457;-68
2022/10/03 12:21:00;;;;;;;3.50;1.67;;;17.60;99.90;;;;;;5094657;28;20444;-69
2022/10/03 12:23:41;;;;;;;12.60;2.10;;;18.90;99.90;;;;;;5095147;28;20441;-68
2022/10/03 12:26:16;;;;;;;4.03;1.60;;;20.10;99.90;;;;;;5095403;28;20441;-68
2022/10/03 12:28:48;;;;;;;4.97;1.77;;;21.10;99.90;;;;;;5095072;28;20446;-69
2022/10/03 12:31:22;;;;;;;5.40;1.60;;;21.80;99.90;;;;;;5095779;28;20499;-68
2022/10/03 12:33:56;;;;;;;5.63;1.60;;;22.10;99.90;;;;;;5095101;28;20783;-69
2022/10/03 12:36:30;;;;;;;8.63;1.60;;;22.30;99.90;;;;;;5095026;28;20444;-68
2022/10/03 12:39:12;;;;;;;7.30;1.77;;;22.20;99.90;;;;;;5094919;28;20819;-68
2022/10/03 12:42:04;;;;;;;6.23;1.30;;;22.20;99.90;;;;;;5095114;28;20467;-69
2022/10/03 12:44:42;;;;;;;8.73;2.00;;;22.00;99.90;;;;;;5094584;28;20472;-69
2022/10/03 12:47:29;;;;;;;4.80;1.90;;;21.70;99.90;;;;;;5094615;28;20769;-67
2022/10/03 12:50:03;;;;;;;7.53;2.23;;;20.80;99.90;;;;;;5094576;28;20477;-67
2022/10/03 12:52:35;;;;;;;8.53;2.03;;;19.70;99.90;;;;;;5094242;28;20437;-67
2022/10/03 12:55:20;;;;;;;6.93;1.50;;;19.50;99.90;;;;;;5095007;28;20476;-68
2022/10/03 12:58:02;;;;;;;5.10;1.60;;;19.30;99.90;;;;;;5094313;28;20905;-68
2022/10/03 13:00:35;;;;;;;10.57;1.77;;;19.50;99.90;;;;;;5095124;28;20524;-67
2022/10/03 13:03:31;;;;;;;4.57;1.70;;;20.00;99.90;;;;;;5095103;28;20441;-68
2022/10/03 13:06:26;;;;;;;4.43;1.53;;;20.90;99.90;;;;;;5085613;28;20454;-68
2022/10/03 13:09:06;;;;;;;4.13;1.30;;;22.30;99.90;;;;;;5094616;28;20433;-67
2022/10/03 13:11:39;;;;;;;3.77;1.37;;;23.10;99.90;;;;;;5094371;28;20442;-68
2022/10/03 13:14:22;;;;;;;6.13;1.73;;;23.30;99.90;;;;;;5094689;28;20438;-68
2022/10/03 13:17:00;;;;;;;10.17;1.40;;;23.80;99.90;;;;;;5094634;28;20528;-67
2022/10/03 13:19:33;;;;;;;6.87;2.23;;;23.50;99.90;;;;;;5094283;28;20928;-67
2022/10/03 13:22:12;;;;;;;5.00;1.80;;;22.20;99.90;;;;;;5094378;28;20446;-67
2022/10/03 13:24:44;;;;;;;4.90;1.40;;;21.90;99.90;;;;;;5094735;28;20465;-68
2022/10/03 13:27:25;;;;;;;5.80;1.20;;;21.20;99.90;;;;;;5095120;28;20441;-68
2022/10/03 13:30:03;;;;;;;6.30;1.63;;;20.60;99.90;;;;;;5094576;28;20434;-68
2022/10/03 13:32:34;;;;;;;3.23;1.50;;;20.40;99.90;;;;;;5094935;28;20450;-68
2022/10/03 13:38:35;;;;;;;5.57;1.50;;;21.30;99.90;;;;;;5098347;28;20559;-68
2022/10/03 13:41:11;;;;;;;4.67;1.40;;;20.90;99.90;;;;;;5098087;28;20429;-68
2022/10/03 13:43:42;;;;;;;4.53;1.80;;;20.30;99.90;;;;;;5099006;28;20451;-67
2022/10/03 13:46:17;;;;;;;5.13;1.17;;;19.80;99.90;;;;;;5098303;28;20434;-68
2022/10/03 13:48:50;;;;;;;8.63;1.53;;;19.10;99.90;;;;;;5098242;28;20497;-68
2022/10/03 13:51:27;;;;;;;3.70;1.33;;;18.70;99.90;;;;;;5097781;28;20557;-67
2022/10/03 13:54:00;;;;;;;4.57;1.57;;;18.90;99.90;;;;;;5098110;28;20436;-69
2022/10/03 13:56:50;;;;;;;3.80;1.40;;;19.20;99.90;;;;;;5097956;28;20507;-67
2022/10/03 13:59:31;;;;;;;4.03;1.50;;;19.60;99.90;;;;;;5097492;28;20452;-68
2022/10/03 14:02:15;;;;;;;6.63;1.60;;;19.30;99.90;;;;;;5097914;28;20456;-68
2022/10/03 14:05:10;;;;;;;5.30;1.43;;;18.70;99.90;;;;;;5098518;28;20479;-68
2022/10/03 14:07:48;;;;;;;3.03;1.10;;;19.00;99.90;;;;;;5099840;28;20445;-68
2022/10/03 14:10:53;;;;;;;5.30;1.30;;;19.70;99.90;;;;;;5098865;28;20877;-68
2022/10/03 14:13:30;;;;;;;3.80;1.30;;;19.70;99.90;;;;;;5097757;28;20827;-67
2022/10/03 14:16:05;;;;;;;5.03;1.50;;;20.10;99.90;;;;;;5097394;28;20569;-70
2022/10/03 14:18:45;;;;;;;5.80;1.77;;;20.90;99.90;;;;;;5098193;28;20487;-69
2022/10/03 14:21:36;;;;;;;7.00;1.50;;;21.70;99.90;;;;;;5097332;28;20441;-69
2022/10/03 14:24:12;;;;;;;9.57;1.73;;;22.10;99.90;;;;;;5097461;28;20445;-69
2022/10/03 14:26:48;;;;;;;3.63;1.70;;;22.60;99.90;;;;;;5097019;28;20437;-67
2022/10/03 14:29:25;;;;;;;10.63;1.47;;;22.70;99.90;;;;;;5097233;28;20437;-68
2022/10/03 14:31:58;;;;;;;3.07;1.40;;;22.10;99.90;;;;;;5096884;28;20488;-67
2022/10/03 14:34:40;;;;;;;6.73;1.80;;;21.20;99.90;;;;;;5097195;28;20796;-67
2022/10/03 14:37:19;;;;;;;10.53;2.20;;;20.10;99.90;;;;;;5096965;28;20889;-67
2022/10/03 14:39:56;;;;;;;3.60;1.60;;;19.50;99.90;;;;;;5097924;28;20854;-68
2022/10/03 14:42:58;;;;;;;4.50;1.63;;;19.00;99.90;;;;;;5097504;28;20520;-67
2022/10/03 14:45:29;;;;;;;5.27;1.73;;;18.60;99.90;;;;;;5096371;28;20459;-68